Map

Track Data

SID SEASON NUMBER BASIN SUBBASIN NAME ISO_TIME NATURE LAT LON WMO_WIND WMO_PRES WMO_AGENCY TRACK_TYPE DIST2LAND LANDFALL IFLAG USA_AGENCY USA_ATCF_ID USA_LAT USA_LON USA_RECORD USA_STATUS USA_WIND USA_PRES USA_SSHS USA_R34_NE USA_R34_SE USA_R34_SW USA_R34_NW USA_R50_NE USA_R50_SE USA_R50_SW USA_R50_NW USA_R64_NE USA_R64_SE USA_R64_SW USA_R64_NW USA_POCI USA_ROCI USA_RMW USA_EYE TOKYO_LAT TOKYO_LON TOKYO_GRADE TOKYO_WIND TOKYO_PRES TOKYO_R50_DIR TOKYO_R50_LONG TOKYO_R50_SHORT TOKYO_R30_DIR TOKYO_R30_LONG TOKYO_R30_SHORT TOKYO_LAND CMA_LAT CMA_LON CMA_CAT CMA_WIND CMA_PRES HKO_LAT HKO_LON HKO_CAT HKO_WIND HKO_PRES NEWDELHI_LAT NEWDELHI_LON NEWDELHI_GRADE NEWDELHI_WIND NEWDELHI_PRES NEWDELHI_CI NEWDELHI_DP NEWDELHI_POCI REUNION_LAT REUNION_LON REUNION_TYPE REUNION_WIND REUNION_PRES REUNION_TNUM REUNION_CI REUNION_RMW REUNION_R34_NE REUNION_R34_SE REUNION_R34_SW REUNION_R34_NW REUNION_R50_NE REUNION_R50_SE REUNION_R50_SW REUNION_R50_NW REUNION_R64_NE REUNION_R64_SE REUNION_R64_SW REUNION_R64_NW BOM_LAT BOM_LON BOM_TYPE BOM_WIND BOM_PRES BOM_TNUM BOM_CI BOM_RMW BOM_R34_NE BOM_R34_SE BOM_R34_SW BOM_R34_NW BOM_R50_NE BOM_R50_SE BOM_R50_SW BOM_R50_NW BOM_R64_NE BOM_R64_SE BOM_R64_SW BOM_R64_NW BOM_ROCI BOM_POCI BOM_EYE BOM_POS_METHOD BOM_PRES_METHOD NADI_LAT NADI_LON NADI_CAT NADI_WIND NADI_PRES WELLINGTON_LAT WELLINGTON_LON WELLINGTON_WIND WELLINGTON_PRES DS824_LAT DS824_LON DS824_STAGE DS824_WIND DS824_PRES TD9636_LAT TD9636_LON TD9636_STAGE TD9636_WIND TD9636_PRES TD9635_LAT TD9635_LON TD9635_WIND TD9635_PRES TD9635_ROCI NEUMANN_LAT NEUMANN_LON NEUMANN_CLASS NEUMANN_WIND NEUMANN_PRES MLC_LAT MLC_LON MLC_CLASS MLC_WIND MLC_PRES USA_GUST BOM_GUST BOM_GUST_PER REUNION_GUST REUNION_GUST_PER USA_SEAHGT USA_SEARAD_NE USA_SEARAD_SE USA_SEARAD_SW USA_SEARAD_NW STORM_SPEED STORM_DIR
1949057S14156 1949 16 SP EA NOT_NAMED 1949-02-25 23:00:00 NR -13.9500 156.050 1002 bom main 610 610 ______O___O___ -1 -14.0000 156.000 1002 -13.9000 156.100 4 14 271
1949057S14156 1949 16 SP EA NOT_NAMED 1949-02-26 00:00:00 TS -13.9459 155.806 main 632 604 O_____P__OP___ jtwc_sh SH171949 -13.9000 155.800 -1 -14.0218 155.753 -14.0000 155.800 TC 25 1002 -13.8889 155.868 4 14 270
1949057S14156 1949 16 SP EA NOT_NAMED 1949-02-26 03:00:00 TS -13.9472 155.105 main 604 561 P_____P__PP___ SH171949 -13.8154 155.097 -1 -14.0881 155.017 -14.1257 155.161 TC -13.8630 155.167 4 14 269
1949057S14156 1949 16 SP EA NOT_NAMED 1949-02-26 06:00:00 TS -13.9803 154.414 main 553 515 O_____P__PP___ jtwc_sh SH171949 -13.8000 154.400 -1 -14.1604 154.304 -14.2527 154.535 TC -13.8663 154.452 4 13 265
1949057S14156 1949 16 SP EA NOT_NAMED 1949-02-26 09:00:00 TS -14.0721 153.739 main 509 489 P_____P__PP___ SH171949 -13.9047 153.708 -1 -14.2451 153.634 -14.3840 153.935 TC -13.9222 153.713 4 13 260
1949057S14156 1949 16 SP EA NOT_NAMED 1949-02-26 11:00:00 TS -14.1686 153.291 main 492 480 P_____P__PO___ SH171949 -14.0279 153.239 -1 -14.3116 153.219 -14.4755 153.556 TC -14.0000 153.200 4 13 257
1949057S14156 1949 16 SP EA NOT_NAMED 1949-02-26 12:00:00 TS -14.2250 153.067 main 480 462 O_____P__PP___ jtwc_sh SH171949 -14.1000 153.000 -1 -14.3487 153.024 -14.5228 153.375 TC -14.0534 152.937 4 14 254
1949057S14156 1949 16 SP EA NOT_NAMED 1949-02-26 15:00:00 TS -14.4145 152.388 main 463 458 P_____P__PP___ SH171949 -14.3277 152.213 -1 -14.4779 152.493 -14.6723 152.867 TC -14.2667 152.153 4 13 251
1949057S14156 1949 16 SP EA NOT_NAMED 1949-02-26 18:00:00 TS -14.6440 151.786 main 462 462 O_____P__PP___ jtwc_sh SH171949 -14.6000 151.500 -1 -14.6397 152.059 -14.8359 152.426 TC -14.5445 151.447 4 12 245
1949057S14156 1949 16 SP EA NOT_NAMED 1949-02-26 21:00:00 TS -14.8961 151.310 main 480 478 P_____P__PP___ SH171949 -14.8773 150.915 -1 -14.8407 151.740 -15.0171 152.066 TC -14.8680 150.914 4 10 236
1949057S14156 1949 16 SP EA NOT_NAMED 1949-02-26 23:00:00 TS -15.0842 151.102 1000 bom main 498 498 P_____O__PO___ SH171949 -15.0859 150.666 -1 -15.0000 151.600 1000 -15.1493 151.876 TC -15.1000 150.700 4 8 222
1949057S14156 1949 16 SP EA NOT_NAMED 1949-02-27 00:00:00 TS -15.1846 151.041 main 508 508 O_____P__PP___ jtwc_sh SH171949 -15.2000 150.600 -1 -15.0878 151.554 -15.2192 151.799 TC -15.2160 150.653 4 7 190
1949057S14156 1949 16 SP EA NOT_NAMED 1949-02-27 03:00:00 TS -15.5194 151.017 main 541 541 P_____P__PP___ SH171949 -15.5923 150.622 -1 -15.3779 151.503 -15.4457 151.639 TC -15.5890 150.697 4 7 169
1949057S14156 1949 16 SP EA NOT_NAMED 1949-02-27 06:00:00 TS -15.8745 151.182 main 551 542 O_____P__OP___ jtwc_sh SH171949 -16.0000 150.900 -1 -15.6929 151.561 -15.7000 151.600 TC -15.9795 150.951 4 8 154
1949057S14156 1949 16 SP EA NOT_NAMED 1949-02-27 07:00:00 TS -15.9912 151.258 bom main 548 534 P_____O__PP___ SH171949 -16.1277 151.005 -1 -15.8000 151.600 -15.7914 151.616 TC -16.1092 151.066 4 9 144
1949057S14156 1949 16 SP EA NOT_NAMED 1949-02-27 09:00:00 TS -16.2171 151.447 main 534 526 P_____P__PP___ SH171949 -16.3726 151.262 -1 -15.9943 151.697 -15.9839 151.688 TC -16.3620 151.326 4 9 138
1949057S14156 1949 16 SP EA NOT_NAMED 1949-02-27 11:00:00 TS -16.4342 151.670 main 532 523 P_____P__PO___ SH171949 -16.5974 151.553 -1 -16.1880 151.837 -16.1880 151.806 TC -16.6000 151.600 4 9 135
1949057S14156 1949 16 SP EA NOT_NAMED 1949-02-27 12:00:00 TS -16.5350 151.783 main 530 518 O_____P__PP___ jtwc_sh SH171949 -16.7000 151.700 -1 -16.2855 151.920 -16.2940 151.879 TC -16.6954 151.715 4 9 131
1949057S14156 1949 16 SP EA NOT_NAMED 1949-02-27 15:00:00 TS -16.8162 152.131 main 523 521 P_____P__PP___ SH171949 -16.9575 152.108 -1 -16.5852 152.206 -16.6254 152.138 TC -16.9554 152.096 4 9 130
1949057S14156 1949 16 SP EA NOT_NAMED 1949-02-27 18:00:00 TS -17.0962 152.490 main 529 529 O_____P__PP___ jtwc_sh SH171949 -17.2000 152.500 -1 -16.9029 152.518 -16.9732 152.434 TC -17.2051 152.499 4 9 131
1949057S14156 1949 16 SP EA NOT_NAMED 1949-02-27 21:00:00 TS -17.4011 152.844 main 531 531 P_____P__PP___ SH171949 -17.4625 152.880 -1 -17.2488 152.821 -17.3329 152.732 TC -17.4818 152.880 4 9 135
1949057S14156 1949 16 SP EA NOT_NAMED 1949-02-27 23:00:00 TS -17.6306 153.059 993 bom main 543 537 P_____O__PO___ SH171949 -17.6745 153.103 -1 -17.5000 153.000 993 -17.5771 152.916 TC -17.7000 153.100 4 9 141
1949057S14156 1949 16 SP EA NOT_NAMED 1949-02-28 00:00:00 TS -17.7640 153.155 main 540 532 O_____P__OP___ jtwc_sh SH171949 -17.8000 153.200 -1 -17.6418 153.062 -17.7000 153.000 TC 40 993 -17.8302 153.199 4 10 152
1949057S14156 1949 16 SP EA NOT_NAMED 1949-02-28 03:00:00 TS -18.2260 153.388 main 536 506 P_____P__PP___ SH171949 -18.2699 153.438 -1 -18.0996 153.221 -18.1851 153.122 TC -18.2644 153.456 4 10 159
1949057S14156 1949 16 SP EA NOT_NAMED 1949-02-28 06:00:00 TS -18.7361 153.548 main 506 474 O_____P__PP___ jtwc_sh SH171949 -18.8000 153.600 -1 -18.5971 153.344 -18.7191 153.201 TC -18.7472 153.648 4 11 165
1949057S14156 1949 16 SP EA NOT_NAMED 1949-02-28 09:00:00 TS -19.2448 153.669 main 474 441 P_____P__PP___ SH171949 -19.3000 153.737 -1 -19.1226 153.433 -19.2890 153.239 TC -19.2565 153.767 4 10 169
1949057S14156 1949 16 SP EA NOT_NAMED 1949-02-28 11:00:00 TS -19.5873 153.714 main 441 433 P_____P__PO___ SH171949 -19.6333 153.789 -1 -19.4827 153.476 -19.6823 153.244 TC -19.6000 153.800 4 10 174
1949057S14156 1949 16 SP EA NOT_NAMED 1949-02-28 12:00:00 TS -19.7560 153.727 main 425 395 O_____P__PP___ jtwc_sh SH171949 -19.8000 153.800 -1 -19.6644 153.493 -19.8815 153.240 TC -19.7595 153.816 4 10 178
1949057S14156 1949 16 SP EA NOT_NAMED 1949-02-28 15:00:00 TS -20.2632 153.731 main 388 361 P_____P__PP___ SH171949 -20.3000 153.795 -1 -20.2107 153.525 -20.4834 153.205 TC -20.2421 153.808 4 10 183
1949057S14156 1949 16 SP EA NOT_NAMED 1949-02-28 18:00:00 TS -20.7713 153.663 main 354 314 O_____P__PP___ jtwc_sh SH171949 -20.8000 153.700 -1 -20.7497 153.533 -21.0814 153.137 TC -20.7357 153.718 4 10 190
1949057S14156 1949 16 SP EA NOT_NAMED 1949-02-28 21:00:00 TS -21.2678 153.536 main 309 286 P_____P__PP___ SH171949 -21.2775 153.537 -1 -21.2697 153.519 -21.6619 153.037 TC -21.2466 153.552 4 10 195
1949057S14156 1949 16 SP EA NOT_NAMED 1949-02-28 23:00:00 TS -21.6081 153.418 990 bom main 286 278 P_____O__PO___ SH171949 -21.6162 153.386 -1 -21.6000 153.500 990 -22.0327 152.955 TC -21.6000 153.400 4 11 197
1949057S14156 1949 16 SP EA NOT_NAMED 1949-03-01 00:00:00 TS -21.7959 153.363 main 278 237 O_____P__PP___ jtwc_sh SH171949 -21.8000 153.300 -1 -21.7642 153.519 -22.2117 152.909 TC -21.8195 153.334 4 13 195
1949057S14156 1949 16 SP EA NOT_NAMED 1949-03-01 03:00:00 TS -22.4175 153.179 main 237 166 P_____P__PP___ SH171949 -22.4574 153.037 -1 -22.2449 153.556 -22.7173 152.755 TC -22.5103 153.086 4 13 199
1949057S14156 1949 16 SP EA NOT_NAMED 1949-03-01 06:00:00 TS -23.0148 152.921 main 166 105 O_____P__PP___ jtwc_sh SH171949 -23.1000 152.700 -1 -22.6918 153.527 -23.1654 152.578 TC -23.1673 152.758 4 12 206
1949057S14156 1949 16 SP EA NOT_NAMED 1949-03-01 09:00:00 TS -23.5310 152.578 main 105 90 P_____P__PP___ SH171949 -23.6773 152.296 -1 -23.0846 153.383 -23.5425 152.381 TC -23.6848 152.337 4 12 214
1949057S14156 1949 16 SP EA NOT_NAMED 1949-03-01 10:00:00 TS -23.6641 152.439 bom main 75 60 P_____O__PP___ SH171949 -23.8242 152.141 -1 -23.2000 153.300 -23.6502 152.311 TC -23.8080 152.174 4 11 228
1949057S14156 1949 16 SP EA NOT_NAMED 1949-03-01 11:00:00 TS -23.7730 152.284 main 60 45 P_____P__PO___ SH171949 -23.9346 151.975 -1 -23.3228 153.183 -23.7480 152.239 TC -23.9000 152.000 4 10 239
1949057S14156 1949 16 SP EA NOT_NAMED 1949-03-01 12:00:00 TS -23.8425 152.119 main 45 22 O_____P__PP___ jtwc_sh SH171949 -24.0000 151.800 -1 -23.4391 153.047 -23.8355 152.166 TC -23.9309 151.828 4 10 263
1949057S14156 1949 16 SP EA NOT_NAMED 1949-03-01 15:00:00 TS -23.8492 151.576 main 33 0 P_____P__PP___ SH171949 -23.9046 151.252 -1 -23.7373 152.555 -24.0309 151.937 TC -23.8503 151.247 4 11 278
1949057S14156 1949 16 SP EA NOT_NAMED 1949-03-01 18:00:00 TS -23.6834 150.950 main 0 0 O_____P__PP___ jtwc_sh SH171949 -23.6000 150.600 -1 -23.9364 152.023 -24.1157 151.697 TC -23.5973 150.577 4 12 286
1949057S14156 1949 16 SP EA NOT_NAMED 1949-03-01 20:00:00 TS -23.5596 150.499 bom main 0 0 P_____O__PP___ SH171949 -23.4249 150.103 -1 -24.0000 151.700 -24.1041 151.533 TC -23.3888 150.088 4 13 287
1949057S14156 1949 16 SP EA NOT_NAMED 1949-03-01 21:00:00 TS -23.4953 150.266 main 0 0 P_____P__PP___ SH171949 -23.3349 149.837 -1 -24.0263 151.557 -24.0765 151.450 TC -23.2852 149.833 4 14 287
1949057S14156 1949 16 SP EA NOT_NAMED 1949-03-01 23:00:00 TS -23.3594 149.791 972 bom main 0 0 P_____O__PO___ SH171949 -23.1687 149.283 -1 -24.0000 151.300 972 -23.9749 151.284 TC -23.1000 149.300 4 14 288
1949057S14156 1949 16 SP EA NOT_NAMED 1949-03-02 00:00:00 TS -23.2875 149.558 main 0 0 O_____P__OP___ jtwc_sh SH171949 -23.1000 149.000 -1 -23.9311 151.192 972 -23.9000 151.200 TC 60 980 -23.0359 149.035 4 13 288
1949057S14156 1949 16 SP EA NOT_NAMED 1949-03-02 03:00:00 TS -23.0850 148.872 main 0 0 P_____P__PP___ SH171949 -22.9694 148.173 -1 -23.5417 150.938 972 -23.5877 150.949 TC 65 976 -22.8619 148.195 4 15 285
1949057S14156 1949 16 SP EA NOT_NAMED 1949-03-02 05:00:00 TS -22.9551 148.236 972 bom main 0 0 P_____O__PP___ SH171949 -22.9194 147.598 -1 -23.2000 150.800 972 4 -23.3330 150.783 TC 68 973 -22.7763 147.600 4 25 280
1949057S14156 1949 16 SP EA NOT_NAMED 1949-03-02 06:00:00 TS -22.8761 147.560 main 0 0 O________OP___ jtwc_sh SH171949 -22.9000 147.300 -1 -23.2000 150.700 TC 70 972 -22.7473 147.294 4 26 276
1949057S14156 1949 16 SP EA NOT_NAMED 1949-03-02 09:00:00 TS -22.7708 146.364 main 0 0 P_________P___ SH171949 -22.7896 146.372 -1 TC -22.7332 146.349 4 20 273
1949057S14156 1949 16 SP EA NOT_NAMED 1949-03-02 11:00:00 TS -22.7825 145.718 main 0 0 P_________O___ SH171949 -22.7738 145.727 -1 TC -22.8000 145.700 4 18 267
1949057S14156 1949 16 SP EA NOT_NAMED 1949-03-02 12:00:00 TS -22.8201 145.390 main 0 0 O_________P___ jtwc_sh SH171949 -22.8000 145.400 -1 -22.8604 145.371 4 19 258
1949057S14156 1949 16 SP EA NOT_NAMED 1949-03-02 14:00:00 TS -22.9730 144.726 bom main 0 0 P_________P___ SH171949 -22.9342 144.740 -1 -23.0312 144.705 4 19 254
1949057S14156 1949 16 SP EA NOT_NAMED 1949-03-02 15:00:00 TS -23.0860 144.388 main 0 0 P_________P___ SH171949 -23.0337 144.407 -1 -23.1383 144.368 4 20 248
1949057S14156 1949 16 SP EA NOT_NAMED 1949-03-02 18:00:00 TS -23.4761 143.366 main 0 0 O_________P___ jtwc_sh SH171949 -23.4000 143.400 -1 -23.5269 143.344 4 21 245
1949057S14156 1949 16 SP EA NOT_NAMED 1949-03-02 21:00:00 NR -23.9818 142.302 main 0 0 __________P___ SH171949 -1 -23.9818 142.302 4 22 243
1949057S14156 1949 16 SP EA NOT_NAMED 1949-03-02 23:00:00 NR -24.3000 141.600 990 bom main 0 __________O___ SH171949 -1 -24.3000 141.600 4 21 244

Digital Typhoon Data and Search

About IBTrACS Database

This database is a web-friendly format of International Best Track Archive for Climate Stewardship (IBTrACS), a global best track data archive curated by NOAA dating back to 1842.

Updated: 2021-12-06